sensor_id;sensor_type;location;lat;lon;timestamp;temperature;humidity
22544;DHT22;11438;52.044;8.716;2023-05-07T00:00:17;18.30;91.80
22544;DHT22;11438;52.044;8.716;2023-05-07T00:02:44;18.30;91.80
22544;DHT22;11438;52.044;8.716;2023-05-07T00:05:10;18.20;91.90
22544;DHT22;11438;52.044;8.716;2023-05-07T00:07:36;18.20;91.90
22544;DHT22;11438;52.044;8.716;2023-05-07T00:10:02;18.20;91.90
22544;DHT22;11438;52.044;8.716;2023-05-07T00:12:28;18.20;91.90
22544;DHT22;11438;52.044;8.716;2023-05-07T00:14:56;18.20;91.90
22544;DHT22;11438;52.044;8.716;2023-05-07T00:17:22;18.10;91.90
22544;DHT22;11438;52.044;8.716;2023-05-07T00:19:47;18.10;92.00
22544;DHT22;11438;52.044;8.716;2023-05-07T00:22:13;18.00;92.00
22544;DHT22;11438;52.044;8.716;2023-05-07T00:24:38;18.00;92.10
22544;DHT22;11438;52.044;8.716;2023-05-07T00:27:04;18.00;92.00
22544;DHT22;11438;52.044;8.716;2023-05-07T00:29:29;18.00;92.10
22544;DHT22;11438;52.044;8.716;2023-05-07T00:31:55;18.00;92.10
22544;DHT22;11438;52.044;8.716;2023-05-07T00:34:20;17.90;92.20
22544;DHT22;11438;52.044;8.716;2023-05-07T00:36:46;17.90;92.20
22544;DHT22;11438;52.044;8.716;2023-05-07T00:39:11;17.90;92.20
22544;DHT22;11438;52.044;8.716;2023-05-07T00:41:37;17.90;92.20
22544;DHT22;11438;52.044;8.716;2023-05-07T00:44:03;17.90;92.20
22544;DHT22;11438;52.044;8.716;2023-05-07T00:46:30;17.80;92.30
22544;DHT22;11438;52.044;8.716;2023-05-07T00:48:57;17.80;92.30
22544;DHT22;11438;52.044;8.716;2023-05-07T00:51:24;17.80;92.30
22544;DHT22;11438;52.044;8.716;2023-05-07T00:53:50;17.70;92.30
22544;DHT22;11438;52.044;8.716;2023-05-07T00:56:16;17.70;92.40
22544;DHT22;11438;52.044;8.716;2023-05-07T00:58:41;17.70;92.40
22544;DHT22;11438;52.044;8.716;2023-05-07T01:01:07;17.70;92.40
22544;DHT22;11438;52.044;8.716;2023-05-07T01:03:33;17.70;92.40
22544;DHT22;11438;52.044;8.716;2023-05-07T01:05:59;17.60;92.50
22544;DHT22;11438;52.044;8.716;2023-05-07T01:08:26;17.60;92.50
22544;DHT22;11438;52.044;8.716;2023-05-07T01:10:54;17.60;92.50
22544;DHT22;11438;52.044;8.716;2023-05-07T01:13:20;17.60;92.60
22544;DHT22;11438;52.044;8.716;2023-05-07T01:15:46;17.50;92.60
22544;DHT22;11438;52.044;8.716;2023-05-07T01:18:11;17.50;92.60
22544;DHT22;11438;52.044;8.716;2023-05-07T01:20:37;17.50;92.70
22544;DHT22;11438;52.044;8.716;2023-05-07T01:23:03;17.50;92.70
22544;DHT22;11438;52.044;8.716;2023-05-07T01:25:29;17.50;92.70
22544;DHT22;11438;52.044;8.716;2023-05-07T01:27:56;17.50;92.70
22544;DHT22;11438;52.044;8.716;2023-05-07T01:30:21;17.40;92.70
22544;DHT22;11438;52.044;8.716;2023-05-07T01:33:01;17.40;92.80
22544;DHT22;11438;52.044;8.716;2023-05-07T01:35:34;17.40;92.90
22544;DHT22;11438;52.044;8.716;2023-05-07T01:38:01;17.40;92.90
22544;DHT22;11438;52.044;8.716;2023-05-07T01:40:29;17.40;92.90
22544;DHT22;11438;52.044;8.716;2023-05-07T01:42:55;17.40;92.90
22544;DHT22;11438;52.044;8.716;2023-05-07T01:45:21;17.40;92.90
22544;DHT22;11438;52.044;8.716;2023-05-07T01:47:47;17.30;92.90
22544;DHT22;11438;52.044;8.716;2023-05-07T01:50:14;17.30;93.00
22544;DHT22;11438;52.044;8.716;2023-05-07T01:52:41;17.30;93.00
22544;DHT22;11438;52.044;8.716;2023-05-07T01:55:07;17.30;93.00
22544;DHT22;11438;52.044;8.716;2023-05-07T01:57:32;17.30;93.40
22544;DHT22;11438;52.044;8.716;2023-05-07T01:59:58;17.30;93.10
22544;DHT22;11438;52.044;8.716;2023-05-07T02:02:23;17.20;93.00
22544;DHT22;11438;52.044;8.716;2023-05-07T02:04:49;17.20;93.10
22544;DHT22;11438;52.044;8.716;2023-05-07T02:07:14;17.20;93.10
22544;DHT22;11438;52.044;8.716;2023-05-07T02:09:40;17.20;93.10
22544;DHT22;11438;52.044;8.716;2023-05-07T02:12:05;17.20;93.20
22544;DHT22;11438;52.044;8.716;2023-05-07T02:14:31;17.20;93.20
22544;DHT22;11438;52.044;8.716;2023-05-07T02:16:56;17.20;93.20
22544;DHT22;11438;52.044;8.716;2023-05-07T02:19:22;17.20;93.30
22544;DHT22;11438;52.044;8.716;2023-05-07T02:21:47;17.10;93.30
22544;DHT22;11438;52.044;8.716;2023-05-07T02:24:14;17.10;93.30
22544;DHT22;11438;52.044;8.716;2023-05-07T02:26:40;17.10;93.40
22544;DHT22;11438;52.044;8.716;2023-05-07T02:29:06;17.10;93.40
22544;DHT22;11438;52.044;8.716;2023-05-07T02:31:32;17.00;93.40
22544;DHT22;11438;52.044;8.716;2023-05-07T02:33:59;17.00;93.50
22544;DHT22;11438;52.044;8.716;2023-05-07T02:36:25;17.00;93.60
22544;DHT22;11438;52.044;8.716;2023-05-07T02:38:51;17.00;93.60
22544;DHT22;11438;52.044;8.716;2023-05-07T02:41:17;16.90;93.50
22544;DHT22;11438;52.044;8.716;2023-05-07T02:43:42;16.90;93.60
22544;DHT22;11438;52.044;8.716;2023-05-07T02:46:08;16.90;93.60
22544;DHT22;11438;52.044;8.716;2023-05-07T02:48:34;16.90;93.60
22544;DHT22;11438;52.044;8.716;2023-05-07T02:51:00;16.90;93.70
22544;DHT22;11438;52.044;8.716;2023-05-07T02:53:26;16.80;93.70
22544;DHT22;11438;52.044;8.716;2023-05-07T02:56:01;16.80;93.70
22544;DHT22;11438;52.044;8.716;2023-05-07T02:58:27;16.80;94.10
22544;DHT22;11438;52.044;8.716;2023-05-07T03:00:53;16.90;93.70
22544;DHT22;11438;52.044;8.716;2023-05-07T03:03:20;16.80;93.80
22544;DHT22;11438;52.044;8.716;2023-05-07T03:05:45;16.80;93.80
22544;DHT22;11438;52.044;8.716;2023-05-07T03:08:11;16.80;93.90
22544;DHT22;11438;52.044;8.716;2023-05-07T03:10:37;16.80;93.90
22544;DHT22;11438;52.044;8.716;2023-05-07T03:13:03;16.80;93.90
22544;DHT22;11438;52.044;8.716;2023-05-07T03:15:29;16.70;93.90
22544;DHT22;11438;52.044;8.716;2023-05-07T03:17:55;16.70;94.00
22544;DHT22;11438;52.044;8.716;2023-05-07T03:20:20;16.70;94.00
22544;DHT22;11438;52.044;8.716;2023-05-07T03:22:46;16.70;94.00
22544;DHT22;11438;52.044;8.716;2023-05-07T03:25:11;16.70;94.00
22544;DHT22;11438;52.044;8.716;2023-05-07T03:27:37;16.70;94.00
22544;DHT22;11438;52.044;8.716;2023-05-07T03:30:03;16.70;94.10
22544;DHT22;11438;52.044;8.716;2023-05-07T03:32:29;16.60;94.00
22544;DHT22;11438;52.044;8.716;2023-05-07T03:34:54;16.60;94.10
22544;DHT22;11438;52.044;8.716;2023-05-07T03:37:21;16.60;94.10
22544;DHT22;11438;52.044;8.716;2023-05-07T03:39:47;16.60;94.20
22544;DHT22;11438;52.044;8.716;2023-05-07T03:42:12;16.60;94.20
22544;DHT22;11438;52.044;8.716;2023-05-07T03:44:38;16.60;94.20
22544;DHT22;11438;52.044;8.716;2023-05-07T03:47:04;16.50;94.20
22544;DHT22;11438;52.044;8.716;2023-05-07T03:49:29;16.50;94.20
22544;DHT22;11438;52.044;8.716;2023-05-07T03:51:55;16.50;94.20
22544;DHT22;11438;52.044;8.716;2023-05-07T03:54:21;16.50;94.30
22544;DHT22;11438;52.044;8.716;2023-05-07T03:56:46;16.50;94.30
22544;DHT22;11438;52.044;8.716;2023-05-07T03:59:12;16.40;94.30
22544;DHT22;11438;52.044;8.716;2023-05-07T04:01:38;16.40;94.40
22544;DHT22;11438;52.044;8.716;2023-05-07T04:04:04;16.40;94.50
22544;DHT22;11438;52.044;8.716;2023-05-07T04:06:30;16.40;94.50
22544;DHT22;11438;52.044;8.716;2023-05-07T04:08:56;16.30;94.50
22544;DHT22;11438;52.044;8.716;2023-05-07T04:11:21;16.30;94.60
22544;DHT22;11438;52.044;8.716;2023-05-07T04:13:47;16.30;94.60
22544;DHT22;11438;52.044;8.716;2023-05-07T04:16:13;16.30;94.60
22544;DHT22;11438;52.044;8.716;2023-05-07T04:18:38;16.30;94.60
22544;DHT22;11438;52.044;8.716;2023-05-07T04:21:04;16.30;94.70
22544;DHT22;11438;52.044;8.716;2023-05-07T04:23:29;16.30;94.70
22544;DHT22;11438;52.044;8.716;2023-05-07T04:25:55;16.30;94.80
22544;DHT22;11438;52.044;8.716;2023-05-07T04:28:21;16.30;94.80
22544;DHT22;11438;52.044;8.716;2023-05-07T04:30:46;16.30;94.80
22544;DHT22;11438;52.044;8.716;2023-05-07T04:33:14;16.30;94.90
22544;DHT22;11438;52.044;8.716;2023-05-07T04:35:41;16.30;94.90
22544;DHT22;11438;52.044;8.716;2023-05-07T04:38:06;16.30;94.90
22544;DHT22;11438;52.044;8.716;2023-05-07T04:40:32;16.30;94.90
22544;DHT22;11438;52.044;8.716;2023-05-07T04:42:57;16.30;95.00
22544;DHT22;11438;52.044;8.716;2023-05-07T04:45:23;16.30;95.00
22544;DHT22;11438;52.044;8.716;2023-05-07T04:47:48;16.30;95.00
22544;DHT22;11438;52.044;8.716;2023-05-07T04:50:14;16.30;95.10
22544;DHT22;11438;52.044;8.716;2023-05-07T04:52:39;16.30;95.40
22544;DHT22;11438;52.044;8.716;2023-05-07T04:55:05;16.30;95.10
22544;DHT22;11438;52.044;8.716;2023-05-07T04:57:30;16.30;95.10
22544;DHT22;11438;52.044;8.716;2023-05-07T04:59:56;16.30;95.10
22544;DHT22;11438;52.044;8.716;2023-05-07T05:02:22;16.30;95.20
22544;DHT22;11438;52.044;8.716;2023-05-07T05:04:47;16.30;95.20
22544;DHT22;11438;52.044;8.716;2023-05-07T05:07:13;16.30;95.20
22544;DHT22;11438;52.044;8.716;2023-05-07T05:09:38;16.30;95.30
22544;DHT22;11438;52.044;8.716;2023-05-07T05:12:04;16.30;95.40
22544;DHT22;11438;52.044;8.716;2023-05-07T05:14:32;16.30;95.40
22544;DHT22;11438;52.044;8.716;2023-05-07T05:16:57;16.30;95.40
22544;DHT22;11438;52.044;8.716;2023-05-07T05:19:23;16.30;95.40
22544;DHT22;11438;52.044;8.716;2023-05-07T05:21:48;16.30;95.40
22544;DHT22;11438;52.044;8.716;2023-05-07T05:24:14;16.30;95.40
22544;DHT22;11438;52.044;8.716;2023-05-07T05:26:40;16.30;95.40
22544;DHT22;11438;52.044;8.716;2023-05-07T05:29:05;16.30;95.40
22544;DHT22;11438;52.044;8.716;2023-05-07T05:31:31;16.30;95.40
22544;DHT22;11438;52.044;8.716;2023-05-07T05:33:57;16.40;95.50
22544;DHT22;11438;52.044;8.716;2023-05-07T05:36:22;16.40;95.50
22544;DHT22;11438;52.044;8.716;2023-05-07T05:38:48;16.40;95.50
22544;DHT22;11438;52.044;8.716;2023-05-07T05:41:13;16.40;95.50
22544;DHT22;11438;52.044;8.716;2023-05-07T05:43:39;16.40;95.50
22544;DHT22;11438;52.044;8.716;2023-05-07T05:46:05;16.40;95.50
22544;DHT22;11438;52.044;8.716;2023-05-07T05:48:30;16.40;95.50
22544;DHT22;11438;52.044;8.716;2023-05-07T05:50:55;16.50;95.50
22544;DHT22;11438;52.044;8.716;2023-05-07T05:53:21;16.50;95.40
22544;DHT22;11438;52.044;8.716;2023-05-07T05:55:47;16.50;95.40
22544;DHT22;11438;52.044;8.716;2023-05-07T05:58:12;16.50;95.40
22544;DHT22;11438;52.044;8.716;2023-05-07T06:00:38;16.50;95.40
22544;DHT22;11438;52.044;8.716;2023-05-07T06:03:03;16.50;95.40
22544;DHT22;11438;52.044;8.716;2023-05-07T06:05:29;16.50;95.50
22544;DHT22;11438;52.044;8.716;2023-05-07T06:07:55;16.50;95.50
22544;DHT22;11438;52.044;8.716;2023-05-07T06:10:21;16.60;95.50
22544;DHT22;11438;52.044;8.716;2023-05-07T06:12:46;16.60;95.50
22544;DHT22;11438;52.044;8.716;2023-05-07T06:15:12;16.60;95.50
22544;DHT22;11438;52.044;8.716;2023-05-07T06:17:37;16.60;95.50
22544;DHT22;11438;52.044;8.716;2023-05-07T06:20:03;16.60;95.50
22544;DHT22;11438;52.044;8.716;2023-05-07T06:22:29;16.70;95.50
22544;DHT22;11438;52.044;8.716;2023-05-07T06:24:54;16.70;95.50
22544;DHT22;11438;52.044;8.716;2023-05-07T06:27:20;16.70;95.50
22544;DHT22;11438;52.044;8.716;2023-05-07T06:29:47;16.80;95.50
22544;DHT22;11438;52.044;8.716;2023-05-07T06:32:13;16.80;95.50
22544;DHT22;11438;52.044;8.716;2023-05-07T06:34:39;16.90;95.60
22544;DHT22;11438;52.044;8.716;2023-05-07T06:37:05;16.90;95.50
22544;DHT22;11438;52.044;8.716;2023-05-07T06:39:31;17.00;95.50
22544;DHT22;11438;52.044;8.716;2023-05-07T06:41:56;17.00;95.50
22544;DHT22;11438;52.044;8.716;2023-05-07T06:44:22;17.10;95.80
22544;DHT22;11438;52.044;8.716;2023-05-07T06:46:47;17.20;95.40
22544;DHT22;11438;52.044;8.716;2023-05-07T06:49:14;17.20;95.30
22544;DHT22;11438;52.044;8.716;2023-05-07T06:51:39;17.30;95.30
22544;DHT22;11438;52.044;8.716;2023-05-07T06:54:05;17.40;95.20
22544;DHT22;11438;52.044;8.716;2023-05-07T06:56:31;17.40;95.20
22544;DHT22;11438;52.044;8.716;2023-05-07T06:58:56;17.50;95.10
22544;DHT22;11438;52.044;8.716;2023-05-07T07:01:22;17.50;94.90
22544;DHT22;11438;52.044;8.716;2023-05-07T07:03:47;17.60;94.90
22544;DHT22;11438;52.044;8.716;2023-05-07T07:06:13;17.60;94.80
22544;DHT22;11438;52.044;8.716;2023-05-07T07:08:39;17.70;94.70
22544;DHT22;11438;52.044;8.716;2023-05-07T07:11:05;17.70;94.60
22544;DHT22;11438;52.044;8.716;2023-05-07T07:13:31;17.70;94.40
22544;DHT22;11438;52.044;8.716;2023-05-07T07:15:56;17.80;94.50
22544;DHT22;11438;52.044;8.716;2023-05-07T07:18:22;17.80;94.40
22544;DHT22;11438;52.044;8.716;2023-05-07T07:20:47;17.80;94.30
22544;DHT22;11438;52.044;8.716;2023-05-07T07:23:13;17.90;94.40
22544;DHT22;11438;52.044;8.716;2023-05-07T07:25:39;17.90;94.70
22544;DHT22;11438;52.044;8.716;2023-05-07T07:28:05;17.90;94.20
22544;DHT22;11438;52.044;8.716;2023-05-07T07:30:31;17.90;94.20
22544;DHT22;11438;52.044;8.716;2023-05-07T07:32:56;18.00;94.10
22544;DHT22;11438;52.044;8.716;2023-05-07T07:35:30;18.00;94.10
22544;DHT22;11438;52.044;8.716;2023-05-07T07:37:56;18.10;94.10
22544;DHT22;11438;52.044;8.716;2023-05-07T07:40:22;18.10;94.00
22544;DHT22;11438;52.044;8.716;2023-05-07T07:42:47;18.20;94.10
22544;DHT22;11438;52.044;8.716;2023-05-07T07:45:13;18.20;93.90
22544;DHT22;11438;52.044;8.716;2023-05-07T07:47:39;18.20;94.00
22544;DHT22;11438;52.044;8.716;2023-05-07T07:50:06;18.30;94.20
22544;DHT22;11438;52.044;8.716;2023-05-07T07:52:32;18.40;93.90
22544;DHT22;11438;52.044;8.716;2023-05-07T07:54:57;18.40;93.70
22544;DHT22;11438;52.044;8.716;2023-05-07T07:57:23;18.50;93.70
22544;DHT22;11438;52.044;8.716;2023-05-07T07:59:49;18.50;93.50
22544;DHT22;11438;52.044;8.716;2023-05-07T08:02:15;18.60;93.50
22544;DHT22;11438;52.044;8.716;2023-05-07T08:04:41;18.60;93.40
22544;DHT22;11438;52.044;8.716;2023-05-07T08:07:09;18.70;93.40
22544;DHT22;11438;52.044;8.716;2023-05-07T08:09:34;18.70;93.00
22544;DHT22;11438;52.044;8.716;2023-05-07T08:12:00;18.70;92.90
22544;DHT22;11438;52.044;8.716;2023-05-07T08:14:26;18.80;93.20
22544;DHT22;11438;52.044;8.716;2023-05-07T08:16:54;18.80;93.40
22544;DHT22;11438;52.044;8.716;2023-05-07T08:19:20;18.80;93.00
22544;DHT22;11438;52.044;8.716;2023-05-07T08:21:45;18.90;93.10
22544;DHT22;11438;52.044;8.716;2023-05-07T08:24:13;18.90;92.90
22544;DHT22;11438;52.044;8.716;2023-05-07T08:26:39;18.90;92.80
22544;DHT22;11438;52.044;8.716;2023-05-07T08:29:04;19.00;92.80
22544;DHT22;11438;52.044;8.716;2023-05-07T08:31:30;19.00;92.50
22544;DHT22;11438;52.044;8.716;2023-05-07T08:33:57;19.00;92.40
22544;DHT22;11438;52.044;8.716;2023-05-07T08:36:22;19.00;92.30
22544;DHT22;11438;52.044;8.716;2023-05-07T08:38:48;19.00;92.30
22544;DHT22;11438;52.044;8.716;2023-05-07T08:41:14;19.00;92.30
22544;DHT22;11438;52.044;8.716;2023-05-07T08:43:41;19.10;92.30
22544;DHT22;11438;52.044;8.716;2023-05-07T08:46:09;19.00;92.30
22544;DHT22;11438;52.044;8.716;2023-05-07T08:48:35;19.00;92.20
22544;DHT22;11438;52.044;8.716;2023-05-07T08:51:01;19.10;92.40
22544;DHT22;11438;52.044;8.716;2023-05-07T08:53:26;19.10;92.40
22544;DHT22;11438;52.044;8.716;2023-05-07T08:55:53;19.20;92.50
22544;DHT22;11438;52.044;8.716;2023-05-07T08:58:19;19.20;92.50
22544;DHT22;11438;52.044;8.716;2023-05-07T09:00:44;19.30;92.50
22544;DHT22;11438;52.044;8.716;2023-05-07T09:03:10;19.30;92.40
22544;DHT22;11438;52.044;8.716;2023-05-07T09:05:38;19.40;92.20
22544;DHT22;11438;52.044;8.716;2023-05-07T09:08:04;19.40;92.20
22544;DHT22;11438;52.044;8.716;2023-05-07T09:10:33;19.50;92.30
22544;DHT22;11438;52.044;8.716;2023-05-07T09:12:59;19.50;92.30
22544;DHT22;11438;52.044;8.716;2023-05-07T09:15:25;19.60;92.10
22544;DHT22;11438;52.044;8.716;2023-05-07T09:17:51;19.60;91.80
22544;DHT22;11438;52.044;8.716;2023-05-07T09:20:16;19.70;92.20
22544;DHT22;11438;52.044;8.716;2023-05-07T09:22:42;19.70;91.80
22544;DHT22;11438;52.044;8.716;2023-05-07T09:25:09;19.70;92.00
22544;DHT22;11438;52.044;8.716;2023-05-07T09:27:35;19.90;91.90
22544;DHT22;11438;52.044;8.716;2023-05-07T09:30:05;19.90;91.80
22544;DHT22;11438;52.044;8.716;2023-05-07T09:32:35;20.00;91.80
22544;DHT22;11438;52.044;8.716;2023-05-07T09:35:01;20.00;91.70
22544;DHT22;11438;52.044;8.716;2023-05-07T09:37:27;20.00;91.50
22544;DHT22;11438;52.044;8.716;2023-05-07T09:39:53;20.10;91.30
22544;DHT22;11438;52.044;8.716;2023-05-07T09:42:23;20.10;91.20
22544;DHT22;11438;52.044;8.716;2023-05-07T09:44:50;20.20;91.40
22544;DHT22;11438;52.044;8.716;2023-05-07T09:47:19;20.20;91.40
22544;DHT22;11438;52.044;8.716;2023-05-07T09:49:47;20.30;91.10
22544;DHT22;11438;52.044;8.716;2023-05-07T09:52:14;20.30;91.30
22544;DHT22;11438;52.044;8.716;2023-05-07T09:54:40;20.30;91.10
22544;DHT22;11438;52.044;8.716;2023-05-07T09:57:10;20.40;91.30
22544;DHT22;11438;52.044;8.716;2023-05-07T09:59:37;20.40;91.20
22544;DHT22;11438;52.044;8.716;2023-05-07T10:02:04;20.40;91.00
22544;DHT22;11438;52.044;8.716;2023-05-07T10:04:31;20.50;91.20
22544;DHT22;11438;52.044;8.716;2023-05-07T10:06:56;20.60;91.00
22544;DHT22;11438;52.044;8.716;2023-05-07T10:09:23;20.60;90.90
22544;DHT22;11438;52.044;8.716;2023-05-07T10:11:49;20.60;91.00
22544;DHT22;11438;52.044;8.716;2023-05-07T10:14:15;20.60;90.90
22544;DHT22;11438;52.044;8.716;2023-05-07T10:16:41;20.70;90.70
22544;DHT22;11438;52.044;8.716;2023-05-07T10:19:07;20.70;90.80
22544;DHT22;11438;52.044;8.716;2023-05-07T10:21:36;20.70;90.70
22544;DHT22;11438;52.044;8.716;2023-05-07T10:24:35;20.70;90.50
22544;DHT22;11438;52.044;8.716;2023-05-07T10:27:04;20.70;90.60
22544;DHT22;11438;52.044;8.716;2023-05-07T10:29:42;20.80;90.50
22544;DHT22;11438;52.044;8.716;2023-05-07T10:32:26;20.80;90.40
22544;DHT22;11438;52.044;8.716;2023-05-07T10:34:56;20.80;90.70
22544;DHT22;11438;52.044;8.716;2023-05-07T10:37:24;20.90;90.80
22544;DHT22;11438;52.044;8.716;2023-05-07T10:39:50;20.90;90.70
22544;DHT22;11438;52.044;8.716;2023-05-07T10:42:16;21.00;90.40
22544;DHT22;11438;52.044;8.716;2023-05-07T10:44:42;21.00;90.50
22544;DHT22;11438;52.044;8.716;2023-05-07T10:47:09;21.10;90.50
22544;DHT22;11438;52.044;8.716;2023-05-07T10:49:36;21.10;90.40
22544;DHT22;11438;52.044;8.716;2023-05-07T10:52:17;21.20;90.10
22544;DHT22;11438;52.044;8.716;2023-05-07T10:54:43;21.20;90.40
22544;DHT22;11438;52.044;8.716;2023-05-07T10:59:57;21.30;90.30
22544;DHT22;11438;52.044;8.716;2023-05-07T11:02:22;21.40;90.40
22544;DHT22;11438;52.044;8.716;2023-05-07T11:05:21;21.50;90.40
22544;DHT22;11438;52.044;8.716;2023-05-07T11:08:01;21.50;90.00
22544;DHT22;11438;52.044;8.716;2023-05-07T11:10:49;21.60;89.70
22544;DHT22;11438;52.044;8.716;2023-05-07T11:13:15;21.60;90.10
22544;DHT22;11438;52.044;8.716;2023-05-07T11:15:47;21.70;89.80
22544;DHT22;11438;52.044;8.716;2023-05-07T11:18:17;21.70;89.20
22544;DHT22;11438;52.044;8.716;2023-05-07T11:26:10;21.70;88.60
22544;DHT22;11438;52.044;8.716;2023-05-07T11:28:41;21.70;89.20
22544;DHT22;11438;52.044;8.716;2023-05-07T11:31:07;21.70;89.00
22544;DHT22;11438;52.044;8.716;2023-05-07T11:33:34;21.70;88.30
22544;DHT22;11438;52.044;8.716;2023-05-07T11:36:01;21.70;88.70
22544;DHT22;11438;52.044;8.716;2023-05-07T11:38:29;21.70;88.60
22544;DHT22;11438;52.044;8.716;2023-05-07T11:40:56;21.70;88.90
22544;DHT22;11438;52.044;8.716;2023-05-07T11:43:22;21.70;88.50
22544;DHT22;11438;52.044;8.716;2023-05-07T11:45:48;21.70;88.20
22544;DHT22;11438;52.044;8.716;2023-05-07T11:48:14;21.70;87.90
22544;DHT22;11438;52.044;8.716;2023-05-07T11:50:54;21.70;88.40
22544;DHT22;11438;52.044;8.716;2023-05-07T11:53:25;21.70;87.60
22544;DHT22;11438;52.044;8.716;2023-05-07T11:55:57;21.70;89.20
22544;DHT22;11438;52.044;8.716;2023-05-07T11:58:24;21.70;89.00
22544;DHT22;11438;52.044;8.716;2023-05-07T12:00:51;21.70;88.60
22544;DHT22;11438;52.044;8.716;2023-05-07T12:03:17;21.80;89.30
22544;DHT22;11438;52.044;8.716;2023-05-07T12:05:47;21.80;89.30
22544;DHT22;11438;52.044;8.716;2023-05-07T12:08:20;21.90;89.80
22544;DHT22;11438;52.044;8.716;2023-05-07T12:10:48;22.00;89.10
22544;DHT22;11438;52.044;8.716;2023-05-07T12:13:20;22.00;89.70
22544;DHT22;11438;52.044;8.716;2023-05-07T12:15:46;22.10;89.20
22544;DHT22;11438;52.044;8.716;2023-05-07T12:18:12;22.20;88.50
22544;DHT22;11438;52.044;8.716;2023-05-07T12:20:39;22.30;88.10
22544;DHT22;11438;52.044;8.716;2023-05-07T12:23:04;22.30;87.50
22544;DHT22;11438;52.044;8.716;2023-05-07T12:25:31;22.40;87.10
22544;DHT22;11438;52.044;8.716;2023-05-07T12:27:57;22.40;86.80
22544;DHT22;11438;52.044;8.716;2023-05-07T12:30:25;22.40;86.10
22544;DHT22;11438;52.044;8.716;2023-05-07T12:32:54;22.50;86.10
22544;DHT22;11438;52.044;8.716;2023-05-07T12:35:46;22.50;86.20
22544;DHT22;11438;52.044;8.716;2023-05-07T12:38:14;22.50;86.30
22544;DHT22;11438;52.044;8.716;2023-05-07T12:40:50;22.50;87.20
22544;DHT22;11438;52.044;8.716;2023-05-07T12:43:27;22.60;86.90
22544;DHT22;11438;52.044;8.716;2023-05-07T12:45:57;22.60;86.10
22544;DHT22;11438;52.044;8.716;2023-05-07T12:48:25;22.60;85.50
22544;DHT22;11438;52.044;8.716;2023-05-07T12:50:56;22.70;84.90
22544;DHT22;11438;52.044;8.716;2023-05-07T12:53:24;22.70;84.30
22544;DHT22;11438;52.044;8.716;2023-05-07T12:55:58;22.70;85.80
22544;DHT22;11438;52.044;8.716;2023-05-07T13:00:52;22.70;84.30
22544;DHT22;11438;52.044;8.716;2023-05-07T13:03:26;22.70;84.60
22544;DHT22;11438;52.044;8.716;2023-05-07T13:05:52;22.70;84.60
22544;DHT22;11438;52.044;8.716;2023-05-07T13:08:32;22.70;84.60
22544;DHT22;11438;52.044;8.716;2023-05-07T13:11:02;22.80;84.70
22544;DHT22;11438;52.044;8.716;2023-05-07T13:13:32;22.80;84.70
22544;DHT22;11438;52.044;8.716;2023-05-07T13:15:59;22.80;84.30
22544;DHT22;11438;52.044;8.716;2023-05-07T13:18:26;22.90;84.10
22544;DHT22;11438;52.044;8.716;2023-05-07T13:20:52;22.90;83.70
22544;DHT22;11438;52.044;8.716;2023-05-07T13:23:18;22.90;84.40
22544;DHT22;11438;52.044;8.716;2023-05-07T13:25:43;23.00;83.80
22544;DHT22;11438;52.044;8.716;2023-05-07T13:28:09;23.00;83.60
22544;DHT22;11438;52.044;8.716;2023-05-07T13:30:35;23.10;83.50
22544;DHT22;11438;52.044;8.716;2023-05-07T13:33:00;23.10;83.40
22544;DHT22;11438;52.044;8.716;2023-05-07T13:35:26;23.10;82.60
22544;DHT22;11438;52.044;8.716;2023-05-07T13:37:52;23.10;82.90
22544;DHT22;11438;52.044;8.716;2023-05-07T13:40:18;23.20;82.20
22544;DHT22;11438;52.044;8.716;2023-05-07T13:42:44;23.20;81.30
22544;DHT22;11438;52.044;8.716;2023-05-07T13:45:10;23.20;82.00
22544;DHT22;11438;52.044;8.716;2023-05-07T13:47:36;23.20;82.80
22544;DHT22;11438;52.044;8.716;2023-05-07T13:50:01;23.20;83.20
22544;DHT22;11438;52.044;8.716;2023-05-07T13:52:26;23.30;82.30
22544;DHT22;11438;52.044;8.716;2023-05-07T13:54:52;23.30;80.90
22544;DHT22;11438;52.044;8.716;2023-05-07T13:57:18;23.30;80.60
22544;DHT22;11438;52.044;8.716;2023-05-07T13:59:44;23.30;80.20
22544;DHT22;11438;52.044;8.716;2023-05-07T14:02:09;23.30;80.20
22544;DHT22;11438;52.044;8.716;2023-05-07T14:04:35;23.30;79.90
22544;DHT22;11438;52.044;8.716;2023-05-07T14:07:00;23.30;81.10
22544;DHT22;11438;52.044;8.716;2023-05-07T14:09:26;23.30;81.70
22544;DHT22;11438;52.044;8.716;2023-05-07T14:11:51;23.30;80.70
22544;DHT22;11438;52.044;8.716;2023-05-07T14:14:18;23.30;80.20
22544;DHT22;11438;52.044;8.716;2023-05-07T14:16:44;23.30;79.70
22544;DHT22;11438;52.044;8.716;2023-05-07T14:19:10;23.30;79.90
22544;DHT22;11438;52.044;8.716;2023-05-07T14:21:36;23.30;79.90
22544;DHT22;11438;52.044;8.716;2023-05-07T14:24:01;23.20;79.60
22544;DHT22;11438;52.044;8.716;2023-05-07T14:26:27;23.20;79.60
22544;DHT22;11438;52.044;8.716;2023-05-07T14:28:53;23.20;79.00
22544;DHT22;11438;52.044;8.716;2023-05-07T14:31:20;23.20;79.50
22544;DHT22;11438;52.044;8.716;2023-05-07T14:33:46;23.10;79.30
22544;DHT22;11438;52.044;8.716;2023-05-07T14:36:11;23.10;79.60
22544;DHT22;11438;52.044;8.716;2023-05-07T14:38:36;23.10;79.50
22544;DHT22;11438;52.044;8.716;2023-05-07T14:41:02;23.10;79.70
22544;DHT22;11438;52.044;8.716;2023-05-07T14:43:28;23.00;80.00
22544;DHT22;11438;52.044;8.716;2023-05-07T14:45:53;23.00;80.00
22544;DHT22;11438;52.044;8.716;2023-05-07T14:48:18;23.00;79.30
22544;DHT22;11438;52.044;8.716;2023-05-07T14:50:47;22.90;79.30
22544;DHT22;11438;52.044;8.716;2023-05-07T14:53:13;22.90;79.40
22544;DHT22;11438;52.044;8.716;2023-05-07T14:55:38;22.90;79.10
22544;DHT22;11438;52.044;8.716;2023-05-07T14:58:04;22.90;79.00
22544;DHT22;11438;52.044;8.716;2023-05-07T15:00:30;22.80;79.10
22544;DHT22;11438;52.044;8.716;2023-05-07T15:03:06;22.80;79.00
22544;DHT22;11438;52.044;8.716;2023-05-07T15:05:32;22.80;79.10
22544;DHT22;11438;52.044;8.716;2023-05-07T15:07:58;22.70;79.00
22544;DHT22;11438;52.044;8.716;2023-05-07T15:10:24;22.70;79.30
22544;DHT22;11438;52.044;8.716;2023-05-07T15:12:49;22.70;79.80
22544;DHT22;11438;52.044;8.716;2023-05-07T15:15:15;22.70;79.20
22544;DHT22;11438;52.044;8.716;2023-05-07T15:17:41;22.60;79.10
22544;DHT22;11438;52.044;8.716;2023-05-07T15:20:07;22.60;79.40
22544;DHT22;11438;52.044;8.716;2023-05-07T15:22:33;22.60;79.70
22544;DHT22;11438;52.044;8.716;2023-05-07T15:24:58;22.60;79.50
22544;DHT22;11438;52.044;8.716;2023-05-07T15:27:24;22.60;79.80
22544;DHT22;11438;52.044;8.716;2023-05-07T15:29:50;22.60;79.70
22544;DHT22;11438;52.044;8.716;2023-05-07T15:32:16;22.60;79.70
22544;DHT22;11438;52.044;8.716;2023-05-07T15:34:41;22.60;79.70
22544;DHT22;11438;52.044;8.716;2023-05-07T15:37:07;22.60;79.70